METAR Data
IDs: Format: Raw Decoded Include TAF

Data at: 1746 UTC 21 Sep 2018

KGPM 211650Z 17010KT 10SM SCT020 SCT028 28/22 A2999
KGPM 211550Z 14010KT 10SM BKN015 BKN024 26/24 A2999
KGPM 211450Z 14006KT 10SM BKN014 OVC020 26/24 A2998
KGPM 211350Z 14006KT 10SM OVC014 25/25 A2997
KGPM 211250Z 15006KT 10SM SCT010 SCT014 25/25 A2995
KGPM 211150Z 17004KT 5SM RA BKN010 BKN020 25/25 A2995
KGPM 211135Z AUTO 17006KT 10SM BKN010 OVC016 25/24 A2995 RMK AO2 T02500241
KGPM 211115Z AUTO 17008KT 10SM BKN010 OVC014 25/24 A2995 RMK AO2 T02500239
KGPM 211055Z AUTO 16005KT 10SM OVC012 25/24 A2995 RMK AO2 T02500236
KGPM 211035Z AUTO 15005KT 10SM OVC012 25/23 A2994 RMK AO2 T02470226
KGPM 211015Z AUTO 15005KT 10SM OVC012 25/22 A2994 RMK AO2 T02470218
KGPM 210955Z AUTO 15005KT 10SM BKN014 BKN085 25/22 A2994 RMK AO2 T02470217
KGPM 210935Z AUTO 14007KT 10SM SCT014 SCT085 25/22 A2994 RMK AO2 T02470216
KGPM 210915Z AUTO 14005KT 10SM SCT014 25/22 A2994 RMK AO2 T02460215
KGPM 210855Z AUTO 14005KT 10SM SCT018 SCT025 25/21 A2994 RMK AO2 T02450212
KGPM 210835Z AUTO 14004KT 10SM SCT018 SCT025 SCT030 25/21 A2995 RMK AO2 T02470211
KGPM 210815Z AUTO 14004KT 10SM SCT029 SCT070 25/21 A2995 RMK AO2 T02470210
KGPM 210755Z AUTO 14005KT 10SM SCT060 25/21 A2994 RMK AO2 T02460208
KGPM 210735Z AUTO 15009KT 10SM BKN060 25/21 A2994 RMK AO2 T02460205
KGPM 210715Z AUTO 15005KT 10SM BKN060 BKN075 24/20 A2994 RMK AO2 T02430203
KGPM 210655Z AUTO 15005KT 10SM SCT070 24/20 A2994 RMK AO2 T02410201
KGPM 210635Z AUTO 16005KT 10SM SCT030 SCT065 SCT075 24/20 A2995 RMK AO2 T02410200
KGPM 210615Z AUTO 17003KT 10SM SCT065 SCT075 24/20 A2995 RMK AO2 T02400201
KGPM 210555Z AUTO 17003KT 10SM SCT065 SCT075 24/20 A2996 RMK AO2 T02380201 10252 20236 403240235
KGPM 210535Z AUTO 00000KT 10SM SCT065 SCT075 24/20 A2996 RMK AO2 T02370200
KGPM 210515Z AUTO 17003KT 10SM BKN070 24/20 A2997 RMK AO2 T02380198
KGPM 210455Z AUTO 16004KT 10SM SCT070 24/20 A2997 RMK AO2 T02370196
KGPM 210435Z AUTO 18006KT 10SM CLR 24/20 A2998 RMK AO2 T02400195
KGPM 210415Z AUTO 16007KT 10SM CLR 24/20 A2997 RMK AO2 T02380195
KGPM 210355Z AUTO 16004KT 10SM CLR 24/20 A2998 RMK AO2 T02400201
KGPM 210335Z AUTO 17008KT 10SM CLR 25/20 A2998 RMK AO2 T02450200
KGPM 210315Z AUTO 17008G14KT 10SM CLR 25/20 A2998 RMK AO2 T02500198
KGPM 210255Z AUTO 15005KT 10SM SCT036 SCT120 25/20 A2997 RMK AO2 T02500202
KGPM 210235Z AUTO 00000KT 10SM SCT038 SCT048 SCT055 25/20 A2997 RMK AO2 T02470204
KGPM 210215Z AUTO 00000KT 10SM CLR 25/21 A2996 RMK AO2 T02480208
KGPM 210150Z 12004KT 10SM SKC 25/21 A2993
KGPM 210050Z 12004KT 10SM SKC 25/21 A2993
KGPM 202350Z 12004KT 10SM SKC 25/21 A2992
KGPM 202250Z 15010KT 10SM SCT065 31/19 A2989
KGPM 202150Z 15010KT 10SM SCT065 31/19 A2989
KGPM 202050Z 14008G16KT 10SM SKC 32/19 A2990
KGPM 201950Z 14010KT 10SM SCT036 32/21 A2992
KGPM 201850Z 14010KT 10SM SKC 31/21 A2995
KGPM 201750Z 15008KT 10SM SKC 31/21 A2997
KGPM 201650Z 18008G18KT 10SM SKC 31/21 A3000
KGPM 201550Z 15008KT 10SM SKC 28/21 A3000
KGPM 201450Z 18008KT 10SM SKC 27/21 A2999
KGPM 201350Z 14006KT 10SM SKC 26/21 A2997
KGPM 201250Z 15004KT 10SM SKC 24/21 A2996
KGPM 201150Z 16006KT 10SM SKC 24/19 A2994
KGPM 201135Z AUTO 16003KT 10SM CLR 24/20 A2994 RMK AO2 T02410200
KGPM 201115Z AUTO 18003KT 10SM CLR 24/20 A2994 RMK AO2 T02430200
KGPM 201055Z AUTO 19003KT 10SM CLR 25/20 A2993 RMK AO2 T02450200
KGPM 201035Z AUTO 00000KT 10SM CLR 25/20 A2993 RMK AO2 T02480200
KGPM 201015Z AUTO 18004KT 10SM CLR 25/20 A2993 RMK AO2 T02500200
KGPM 200955Z AUTO 19004KT 10SM CLR 25/20 A2993 RMK AO2 T02520198
KGPM 200935Z AUTO 18004KT 10SM CLR 26/20 A2993 RMK AO2 T02550198
KGPM 200915Z AUTO 17005KT 10SM CLR 26/20 A2993 RMK AO2 T02550198
KGPM 200855Z AUTO 17003KT 10SM CLR 26/20 A2993 RMK AO2 T02560200
KGPM 200835Z AUTO 16004KT 10SM CLR 26/20 A2993 RMK AO2 T02600198
KGPM 200815Z AUTO 16003KT 10SM CLR 26/20 A2993 RMK AO2 T02620197
KGPM 200755Z AUTO 18003KT 10SM CLR 27/20 A2993 RMK AO2 T02650197
KGPM 200735Z AUTO 17003KT 10SM CLR 27/20 A2994 RMK AO2 T02680196
KGPM 200715Z AUTO 18003KT 10SM CLR 27/20 A2994 RMK AO2 T02700197
KGPM 200655Z AUTO 16004KT 10SM CLR 27/20 A2995 RMK AO2 T02710196
KGPM 200635Z AUTO 17004KT 10SM CLR 28/20 A2994 RMK AO2 T02750195
KGPM 200615Z AUTO 15005KT 10SM CLR 28/19 A2995 RMK AO2 T02750194
KGPM 200555Z AUTO 14004KT 10SM CLR 28/19 A2995 RMK AO2 T02760193 10327 20276 403420243